sensor_id;sensor_type;location;lat;lon;timestamp;temperature;humidity
41324;DHT22;27073;51.128;4.220;2023-02-01T00:02:01;6.70;99.90
41324;DHT22;27073;51.128;4.220;2023-02-01T00:04:27;6.70;99.90
41324;DHT22;27073;51.128;4.220;2023-02-01T00:06:53;6.80;99.90
41324;DHT22;27073;51.128;4.220;2023-02-01T00:09:19;6.90;99.90
41324;DHT22;27073;51.128;4.220;2023-02-01T00:11:45;6.80;99.90
41324;DHT22;27073;51.128;4.220;2023-02-01T00:14:11;6.60;99.90
41324;DHT22;27073;51.128;4.220;2023-02-01T00:16:37;6.50;99.90
41324;DHT22;27073;51.128;4.220;2023-02-01T00:19:07;6.60;99.90
41324;DHT22;27073;51.128;4.220;2023-02-01T00:21:33;6.60;99.90
41324;DHT22;27073;51.128;4.220;2023-02-01T00:23:59;6.70;99.90
41324;DHT22;27073;51.128;4.220;2023-02-01T00:26:37;6.70;99.90
41324;DHT22;27073;51.128;4.220;2023-02-01T00:29:06;6.60;99.90
41324;DHT22;27073;51.128;4.220;2023-02-01T00:31:32;6.60;99.90
41324;DHT22;27073;51.128;4.220;2023-02-01T00:33:58;6.50;99.90
41324;DHT22;27073;51.128;4.220;2023-02-01T00:36:24;6.60;99.90
41324;DHT22;27073;51.128;4.220;2023-02-01T00:38:50;6.50;99.90
41324;DHT22;27073;51.128;4.220;2023-02-01T00:41:18;6.50;99.90
41324;DHT22;27073;51.128;4.220;2023-02-01T00:43:45;6.50;99.90
41324;DHT22;27073;51.128;4.220;2023-02-01T00:46:12;6.50;99.90
41324;DHT22;27073;51.128;4.220;2023-02-01T00:48:39;6.50;99.90
41324;DHT22;27073;51.128;4.220;2023-02-01T00:51:08;6.60;99.90
41324;DHT22;27073;51.128;4.220;2023-02-01T00:53:35;6.70;99.90
41324;DHT22;27073;51.128;4.220;2023-02-01T00:56:01;6.60;99.90
41324;DHT22;27073;51.128;4.220;2023-02-01T00:58:28;6.50;99.90
41324;DHT22;27073;51.128;4.220;2023-02-01T01:01:05;6.50;99.90
41324;DHT22;27073;51.128;4.220;2023-02-01T01:03:33;6.50;99.90
41324;DHT22;27073;51.128;4.220;2023-02-01T01:06:00;6.60;99.90
41324;DHT22;27073;51.128;4.220;2023-02-01T01:08:27;6.60;99.90
41324;DHT22;27073;51.128;4.220;2023-02-01T01:10:53;6.70;99.90
41324;DHT22;27073;51.128;4.220;2023-02-01T01:13:18;6.70;99.90
41324;DHT22;27073;51.128;4.220;2023-02-01T01:15:44;6.70;99.90
41324;DHT22;27073;51.128;4.220;2023-02-01T01:18:10;6.70;99.90
41324;DHT22;27073;51.128;4.220;2023-02-01T01:20:39;6.60;99.90
41324;DHT22;27073;51.128;4.220;2023-02-01T01:23:06;6.60;99.90
41324;DHT22;27073;51.128;4.220;2023-02-01T01:25:32;6.50;99.90
41324;DHT22;27073;51.128;4.220;2023-02-01T01:27:58;6.60;99.90
41324;DHT22;27073;51.128;4.220;2023-02-01T01:30:24;6.60;99.90
41324;DHT22;27073;51.128;4.220;2023-02-01T01:32:51;6.60;99.90
41324;DHT22;27073;51.128;4.220;2023-02-01T01:35:17;6.70;99.90
41324;DHT22;27073;51.128;4.220;2023-02-01T01:37:43;6.70;99.90
41324;DHT22;27073;51.128;4.220;2023-02-01T01:40:10;6.70;99.90
41324;DHT22;27073;51.128;4.220;2023-02-01T01:42:43;6.50;99.90
41324;DHT22;27073;51.128;4.220;2023-02-01T01:47:52;6.50;99.90
41324;DHT22;27073;51.128;4.220;2023-02-01T01:50:29;6.50;99.90
41324;DHT22;27073;51.128;4.220;2023-02-01T01:52:58;6.50;99.90
41324;DHT22;27073;51.128;4.220;2023-02-01T01:55:26;6.40;99.90
41324;DHT22;27073;51.128;4.220;2023-02-01T01:58:00;6.40;99.90
41324;DHT22;27073;51.128;4.220;2023-02-01T02:00:26;6.40;99.90
41324;DHT22;27073;51.128;4.220;2023-02-01T02:03:00;6.40;99.90
41324;DHT22;27073;51.128;4.220;2023-02-01T02:05:29;6.40;99.90
41324;DHT22;27073;51.128;4.220;2023-02-01T02:07:58;6.40;99.90
41324;DHT22;27073;51.128;4.220;2023-02-01T02:10:25;6.30;99.90
41324;DHT22;27073;51.128;4.220;2023-02-01T02:13:12;6.40;99.90
41324;DHT22;27073;51.128;4.220;2023-02-01T02:18:37;6.30;99.90
41324;DHT22;27073;51.128;4.220;2023-02-01T02:21:12;6.20;99.90
41324;DHT22;27073;51.128;4.220;2023-02-01T02:34:32;6.20;99.90
41324;DHT22;27073;51.128;4.220;2023-02-01T02:40:14;6.10;99.90
41324;DHT22;27073;51.128;4.220;2023-02-01T02:46:15;6.20;99.90
41324;DHT22;27073;51.128;4.220;2023-02-01T02:52:21;6.00;99.90
41324;DHT22;27073;51.128;4.220;2023-02-01T02:55:07;6.10;99.90
41324;DHT22;27073;51.128;4.220;2023-02-01T02:57:40;6.10;99.90
41324;DHT22;27073;51.128;4.220;2023-02-01T03:00:32;6.00;99.90
41324;DHT22;27073;51.128;4.220;2023-02-01T03:03:17;6.00;99.90
41324;DHT22;27073;51.128;4.220;2023-02-01T03:06:02;6.00;99.90
41324;DHT22;27073;51.128;4.220;2023-02-01T03:08:30;6.10;99.90
41324;DHT22;27073;51.128;4.220;2023-02-01T03:11:04;6.00;99.90
41324;DHT22;27073;51.128;4.220;2023-02-01T03:13:45;5.90;99.90
41324;DHT22;27073;51.128;4.220;2023-02-01T03:16:18;5.80;99.90
41324;DHT22;27073;51.128;4.220;2023-02-01T03:22:06;6.00;99.90
41324;DHT22;27073;51.128;4.220;2023-02-01T03:24:40;5.90;99.90
41324;DHT22;27073;51.128;4.220;2023-02-01T03:30:01;5.90;99.90
41324;DHT22;27073;51.128;4.220;2023-02-01T03:32:27;5.90;99.90
41324;DHT22;27073;51.128;4.220;2023-02-01T03:34:54;5.90;99.90
41324;DHT22;27073;51.128;4.220;2023-02-01T03:37:26;5.90;99.90
41324;DHT22;27073;51.128;4.220;2023-02-01T03:39:56;5.90;99.90
41324;DHT22;27073;51.128;4.220;2023-02-01T03:42:40;6.00;99.90
41324;DHT22;27073;51.128;4.220;2023-02-01T03:45:16;6.00;99.90
41324;DHT22;27073;51.128;4.220;2023-02-01T03:47:48;6.00;99.90
41324;DHT22;27073;51.128;4.220;2023-02-01T03:50:17;6.00;99.90
41324;DHT22;27073;51.128;4.220;2023-02-01T03:52:51;6.00;99.90
41324;DHT22;27073;51.128;4.220;2023-02-01T03:55:21;5.90;99.90
41324;DHT22;27073;51.128;4.220;2023-02-01T03:58:15;5.90;99.90
41324;DHT22;27073;51.128;4.220;2023-02-01T04:00:53;5.90;99.90
41324;DHT22;27073;51.128;4.220;2023-02-01T04:03:19;5.90;99.90
41324;DHT22;27073;51.128;4.220;2023-02-01T04:05:48;5.90;99.90
41324;DHT22;27073;51.128;4.220;2023-02-01T04:08:14;5.90;99.90
41324;DHT22;27073;51.128;4.220;2023-02-01T04:10:40;5.90;99.90
41324;DHT22;27073;51.128;4.220;2023-02-01T04:13:07;5.90;99.90
41324;DHT22;27073;51.128;4.220;2023-02-01T04:15:33;5.80;99.90
41324;DHT22;27073;51.128;4.220;2023-02-01T04:18:02;5.80;99.90
41324;DHT22;27073;51.128;4.220;2023-02-01T04:20:28;5.90;99.90
41324;DHT22;27073;51.128;4.220;2023-02-01T04:22:54;6.00;99.90
41324;DHT22;27073;51.128;4.220;2023-02-01T04:25:21;6.00;99.90
41324;DHT22;27073;51.128;4.220;2023-02-01T04:27:47;5.90;99.90
41324;DHT22;27073;51.128;4.220;2023-02-01T04:30:13;5.90;99.90
41324;DHT22;27073;51.128;4.220;2023-02-01T04:32:39;5.80;99.90
41324;DHT22;27073;51.128;4.220;2023-02-01T04:35:06;5.90;99.90
41324;DHT22;27073;51.128;4.220;2023-02-01T04:37:32;5.90;99.90
41324;DHT22;27073;51.128;4.220;2023-02-01T04:39:58;5.90;99.90
41324;DHT22;27073;51.128;4.220;2023-02-01T04:42:24;5.80;99.90
41324;DHT22;27073;51.128;4.220;2023-02-01T04:44:49;5.80;99.90
41324;DHT22;27073;51.128;4.220;2023-02-01T04:47:15;5.90;99.90
41324;DHT22;27073;51.128;4.220;2023-02-01T04:49:41;5.90;99.90
41324;DHT22;27073;51.128;4.220;2023-02-01T04:52:07;5.80;99.90
41324;DHT22;27073;51.128;4.220;2023-02-01T04:54:33;5.80;99.90
41324;DHT22;27073;51.128;4.220;2023-02-01T04:56:59;5.80;99.90
41324;DHT22;27073;51.128;4.220;2023-02-01T04:59:25;5.70;99.90
41324;DHT22;27073;51.128;4.220;2023-02-01T05:01:51;5.70;99.90
41324;DHT22;27073;51.128;4.220;2023-02-01T05:04:17;5.60;99.90
41324;DHT22;27073;51.128;4.220;2023-02-01T05:06:44;5.60;99.90
41324;DHT22;27073;51.128;4.220;2023-02-01T05:09:10;5.60;99.90
41324;DHT22;27073;51.128;4.220;2023-02-01T05:11:36;5.60;99.90
41324;DHT22;27073;51.128;4.220;2023-02-01T05:14:20;5.60;99.90
41324;DHT22;27073;51.128;4.220;2023-02-01T05:16:46;5.60;99.90
41324;DHT22;27073;51.128;4.220;2023-02-01T05:19:12;5.50;99.90
41324;DHT22;27073;51.128;4.220;2023-02-01T05:21:38;5.60;99.90
41324;DHT22;27073;51.128;4.220;2023-02-01T05:24:04;5.50;99.90
41324;DHT22;27073;51.128;4.220;2023-02-01T05:26:39;5.60;99.90
41324;DHT22;27073;51.128;4.220;2023-02-01T05:29:06;5.50;99.90
41324;DHT22;27073;51.128;4.220;2023-02-01T05:31:32;5.50;99.90
41324;DHT22;27073;51.128;4.220;2023-02-01T05:33:58;5.50;99.90
41324;DHT22;27073;51.128;4.220;2023-02-01T05:36:24;5.50;99.90
41324;DHT22;27073;51.128;4.220;2023-02-01T05:38:50;5.50;99.90
41324;DHT22;27073;51.128;4.220;2023-02-01T05:41:16;5.50;99.90
41324;DHT22;27073;51.128;4.220;2023-02-01T05:43:42;5.50;99.90
41324;DHT22;27073;51.128;4.220;2023-02-01T05:46:08;5.50;99.90
41324;DHT22;27073;51.128;4.220;2023-02-01T05:48:36;5.50;99.90
41324;DHT22;27073;51.128;4.220;2023-02-01T05:51:01;5.50;99.90
41324;DHT22;27073;51.128;4.220;2023-02-01T05:53:27;5.40;99.90
41324;DHT22;27073;51.128;4.220;2023-02-01T05:55:53;5.40;99.90
41324;DHT22;27073;51.128;4.220;2023-02-01T05:58:19;5.50;99.90
41324;DHT22;27073;51.128;4.220;2023-02-01T06:00:44;5.50;99.90
41324;DHT22;27073;51.128;4.220;2023-02-01T06:03:10;5.40;99.90
41324;DHT22;27073;51.128;4.220;2023-02-01T06:05:36;5.40;99.90
41324;DHT22;27073;51.128;4.220;2023-02-01T06:08:02;5.40;99.90
41324;DHT22;27073;51.128;4.220;2023-02-01T06:10:28;5.40;99.90
41324;DHT22;27073;51.128;4.220;2023-02-01T06:12:54;5.50;99.90
41324;DHT22;27073;51.128;4.220;2023-02-01T06:15:20;5.40;99.90
41324;DHT22;27073;51.128;4.220;2023-02-01T06:17:46;5.40;99.90
41324;DHT22;27073;51.128;4.220;2023-02-01T06:20:14;5.40;99.90
41324;DHT22;27073;51.128;4.220;2023-02-01T06:22:40;5.30;99.90
41324;DHT22;27073;51.128;4.220;2023-02-01T06:25:08;5.30;99.90
41324;DHT22;27073;51.128;4.220;2023-02-01T06:27:34;5.30;99.90
41324;DHT22;27073;51.128;4.220;2023-02-01T06:30:01;5.20;99.90
41324;DHT22;27073;51.128;4.220;2023-02-01T06:32:27;5.20;99.90
41324;DHT22;27073;51.128;4.220;2023-02-01T06:34:53;5.20;99.90
41324;DHT22;27073;51.128;4.220;2023-02-01T06:37:19;5.30;99.90
41324;DHT22;27073;51.128;4.220;2023-02-01T06:39:45;5.30;99.90
41324;DHT22;27073;51.128;4.220;2023-02-01T06:42:11;5.30;99.90
41324;DHT22;27073;51.128;4.220;2023-02-01T06:44:37;5.40;99.90
41324;DHT22;27073;51.128;4.220;2023-02-01T06:47:06;5.40;99.90
41324;DHT22;27073;51.128;4.220;2023-02-01T06:49:32;5.30;99.90
41324;DHT22;27073;51.128;4.220;2023-02-01T06:51:58;5.20;99.90
41324;DHT22;27073;51.128;4.220;2023-02-01T06:54:27;5.20;99.90
41324;DHT22;27073;51.128;4.220;2023-02-01T06:56:54;5.20;99.90
41324;DHT22;27073;51.128;4.220;2023-02-01T06:59:20;5.20;99.90
41324;DHT22;27073;51.128;4.220;2023-02-01T07:01:46;5.20;99.90
41324;DHT22;27073;51.128;4.220;2023-02-01T07:04:12;5.20;99.90
41324;DHT22;27073;51.128;4.220;2023-02-01T07:06:38;5.20;99.90
41324;DHT22;27073;51.128;4.220;2023-02-01T07:09:05;5.30;99.90
41324;DHT22;27073;51.128;4.220;2023-02-01T07:11:31;5.30;99.90
41324;DHT22;27073;51.128;4.220;2023-02-01T07:13:57;5.30;99.90
41324;DHT22;27073;51.128;4.220;2023-02-01T07:16:23;5.40;99.90
41324;DHT22;27073;51.128;4.220;2023-02-01T07:18:50;5.40;99.90
41324;DHT22;27073;51.128;4.220;2023-02-01T07:21:17;5.40;99.90
41324;DHT22;27073;51.128;4.220;2023-02-01T07:23:43;5.40;99.90
41324;DHT22;27073;51.128;4.220;2023-02-01T07:26:10;5.40;99.90
41324;DHT22;27073;51.128;4.220;2023-02-01T07:28:37;5.40;99.90
41324;DHT22;27073;51.128;4.220;2023-02-01T07:33:33;5.50;99.90
41324;DHT22;27073;51.128;4.220;2023-02-01T07:36:01;5.50;99.90
41324;DHT22;27073;51.128;4.220;2023-02-01T07:38:27;5.50;99.90
41324;DHT22;27073;51.128;4.220;2023-02-01T07:41:01;5.50;99.90
41324;DHT22;27073;51.128;4.220;2023-02-01T07:43:28;5.50;99.90
41324;DHT22;27073;51.128;4.220;2023-02-01T07:45:54;5.50;99.90
41324;DHT22;27073;51.128;4.220;2023-02-01T07:48:21;5.60;99.90
41324;DHT22;27073;51.128;4.220;2023-02-01T07:50:47;5.50;99.90
41324;DHT22;27073;51.128;4.220;2023-02-01T07:53:13;5.60;99.90
41324;DHT22;27073;51.128;4.220;2023-02-01T07:55:40;5.60;99.90
41324;DHT22;27073;51.128;4.220;2023-02-01T07:58:06;5.60;99.90
41324;DHT22;27073;51.128;4.220;2023-02-01T08:00:32;5.60;99.90
41324;DHT22;27073;51.128;4.220;2023-02-01T08:03:16;5.60;99.90
41324;DHT22;27073;51.128;4.220;2023-02-01T08:05:42;5.60;99.90
41324;DHT22;27073;51.128;4.220;2023-02-01T08:08:08;5.70;99.90
41324;DHT22;27073;51.128;4.220;2023-02-01T08:10:34;5.70;99.90
41324;DHT22;27073;51.128;4.220;2023-02-01T08:13:01;5.80;99.90
41324;DHT22;27073;51.128;4.220;2023-02-01T08:15:28;5.80;99.90
41324;DHT22;27073;51.128;4.220;2023-02-01T08:17:54;5.90;99.90
41324;DHT22;27073;51.128;4.220;2023-02-01T08:20:24;6.00;99.90
41324;DHT22;27073;51.128;4.220;2023-02-01T08:22:51;5.90;99.90
41324;DHT22;27073;51.128;4.220;2023-02-01T08:25:17;6.00;99.90
41324;DHT22;27073;51.128;4.220;2023-02-01T08:27:44;6.00;99.90
41324;DHT22;27073;51.128;4.220;2023-02-01T08:30:10;6.00;99.90
41324;DHT22;27073;51.128;4.220;2023-02-01T08:32:36;6.00;99.90
41324;DHT22;27073;51.128;4.220;2023-02-01T08:35:03;6.00;99.90
41324;DHT22;27073;51.128;4.220;2023-02-01T08:37:29;6.10;99.90
41324;DHT22;27073;51.128;4.220;2023-02-01T08:39:55;6.20;99.90
41324;DHT22;27073;51.128;4.220;2023-02-01T08:42:21;6.10;99.90
41324;DHT22;27073;51.128;4.220;2023-02-01T08:45:06;6.10;99.90
41324;DHT22;27073;51.128;4.220;2023-02-01T08:47:33;6.20;99.90
41324;DHT22;27073;51.128;4.220;2023-02-01T08:50:00;6.30;99.90
41324;DHT22;27073;51.128;4.220;2023-02-01T08:52:26;6.30;99.90
41324;DHT22;27073;51.128;4.220;2023-02-01T08:54:52;6.30;99.90
41324;DHT22;27073;51.128;4.220;2023-02-01T08:57:18;6.30;99.90
41324;DHT22;27073;51.128;4.220;2023-02-01T08:59:44;6.40;99.90
41324;DHT22;27073;51.128;4.220;2023-02-01T09:02:15;6.30;99.90
41324;DHT22;27073;51.128;4.220;2023-02-01T09:04:42;6.30;99.90
41324;DHT22;27073;51.128;4.220;2023-02-01T09:07:11;6.30;99.90
41324;DHT22;27073;51.128;4.220;2023-02-01T09:09:39;6.30;99.90
41324;DHT22;27073;51.128;4.220;2023-02-01T09:12:05;6.40;99.90
41324;DHT22;27073;51.128;4.220;2023-02-01T09:14:31;6.50;99.90
41324;DHT22;27073;51.128;4.220;2023-02-01T09:16:57;6.50;99.90
41324;DHT22;27073;51.128;4.220;2023-02-01T09:19:23;6.50;99.90
41324;DHT22;27073;51.128;4.220;2023-02-01T09:21:48;6.50;99.90
41324;DHT22;27073;51.128;4.220;2023-02-01T09:24:17;6.60;99.90
41324;DHT22;27073;51.128;4.220;2023-02-01T09:26:43;6.60;99.90
41324;DHT22;27073;51.128;4.220;2023-02-01T09:29:09;6.70;99.90
41324;DHT22;27073;51.128;4.220;2023-02-01T09:31:38;6.80;99.90
41324;DHT22;27073;51.128;4.220;2023-02-01T09:34:05;6.90;99.90
41324;DHT22;27073;51.128;4.220;2023-02-01T09:36:31;6.90;99.90
41324;DHT22;27073;51.128;4.220;2023-02-01T09:38:57;7.00;99.90
41324;DHT22;27073;51.128;4.220;2023-02-01T09:46:54;7.20;99.90
41324;DHT22;27073;51.128;4.220;2023-02-01T09:49:31;7.20;99.90
41324;DHT22;27073;51.128;4.220;2023-02-01T09:52:00;7.20;99.90
41324;DHT22;27073;51.128;4.220;2023-02-01T09:54:40;7.30;99.90
41324;DHT22;27073;51.128;4.220;2023-02-01T09:57:08;7.30;99.90
41324;DHT22;27073;51.128;4.220;2023-02-01T09:59:41;7.40;99.90
41324;DHT22;27073;51.128;4.220;2023-02-01T10:02:24;7.40;99.90
41324;DHT22;27073;51.128;4.220;2023-02-01T10:04:57;7.50;99.70
41324;DHT22;27073;51.128;4.220;2023-02-01T10:07:47;7.50;99.40
41324;DHT22;27073;51.128;4.220;2023-02-01T10:10:28;7.60;99.40
41324;DHT22;27073;51.128;4.220;2023-02-01T10:15:51;7.80;98.20
41324;DHT22;27073;51.128;4.220;2023-02-01T10:18:47;7.80;98.40
41324;DHT22;27073;51.128;4.220;2023-02-01T10:27:37;8.00;97.10
41324;DHT22;27073;51.128;4.220;2023-02-01T10:29:46;8.10;96.60
41324;DHT22;27073;51.128;4.220;2023-02-01T10:32:24;8.10;95.80
41324;DHT22;27073;51.128;4.220;2023-02-01T10:35:04;8.20;93.70
41324;DHT22;27073;51.128;4.220;2023-02-01T10:37:34;8.30;93.00
41324;DHT22;27073;51.128;4.220;2023-02-01T10:40:20;8.30;92.90
41324;DHT22;27073;51.128;4.220;2023-02-01T10:42:56;8.40;93.20
41324;DHT22;27073;51.128;4.220;2023-02-01T10:45:26;8.50;92.80
41324;DHT22;27073;51.128;4.220;2023-02-01T10:47:54;8.50;91.50
41324;DHT22;27073;51.128;4.220;2023-02-01T10:50:35;8.50;90.80
41324;DHT22;27073;51.128;4.220;2023-02-01T10:53:17;8.70;90.40
41324;DHT22;27073;51.128;4.220;2023-02-01T10:55:49;8.80;86.00
41324;DHT22;27073;51.128;4.220;2023-02-01T10:58:30;8.80;86.20
41324;DHT22;27073;51.128;4.220;2023-02-01T11:01:09;8.80;86.50
41324;DHT22;27073;51.128;4.220;2023-02-01T11:04:02;8.80;85.50
41324;DHT22;27073;51.128;4.220;2023-02-01T11:11:23;8.70;86.10
41324;DHT22;27073;51.128;4.220;2023-02-01T11:14:13;8.60;86.90
41324;DHT22;27073;51.128;4.220;2023-02-01T11:16:39;8.70;86.10
41324;DHT22;27073;51.128;4.220;2023-02-01T11:19:07;8.70;85.30
41324;DHT22;27073;51.128;4.220;2023-02-01T11:21:34;8.70;80.60
41324;DHT22;27073;51.128;4.220;2023-02-01T11:24:04;8.90;83.60
41324;DHT22;27073;51.128;4.220;2023-02-01T11:26:32;9.00;83.90
41324;DHT22;27073;51.128;4.220;2023-02-01T11:29:02;9.20;78.80
41324;DHT22;27073;51.128;4.220;2023-02-01T11:31:29;9.30;78.00
41324;DHT22;27073;51.128;4.220;2023-02-01T11:34:04;9.30;74.70
41324;DHT22;27073;51.128;4.220;2023-02-01T11:36:32;9.40;75.40
41324;DHT22;27073;51.128;4.220;2023-02-01T11:39:18;9.50;70.60
41324;DHT22;27073;51.128;4.220;2023-02-01T11:44:41;9.50;67.00
41324;DHT22;27073;51.128;4.220;2023-02-01T11:47:27;9.50;64.80
41324;DHT22;27073;51.128;4.220;2023-02-01T11:50:12;9.50;65.00
41324;DHT22;27073;51.128;4.220;2023-02-01T11:55:47;9.50;62.80
41324;DHT22;27073;51.128;4.220;2023-02-01T11:58:32;9.50;65.30
41324;DHT22;27073;51.128;4.220;2023-02-01T12:01:11;9.60;66.80
41324;DHT22;27073;51.128;4.220;2023-02-01T12:12:31;9.70;55.80
41324;DHT22;27073;51.128;4.220;2023-02-01T12:15:19;9.60;56.30
41324;DHT22;27073;51.128;4.220;2023-02-01T12:18:08;9.60;58.20
41324;DHT22;27073;51.128;4.220;2023-02-01T12:23:34;9.70;52.40
41324;DHT22;27073;51.128;4.220;2023-02-01T12:43:11;9.80;54.70
41324;DHT22;27073;51.128;4.220;2023-02-01T12:45:47;9.80;52.10
41324;DHT22;27073;51.128;4.220;2023-02-01T12:50:56;9.90;48.80
41324;DHT22;27073;51.128;4.220;2023-02-01T12:56:03;10.00;50.30
41324;DHT22;27073;51.128;4.220;2023-02-01T12:58:35;10.10;49.80
41324;DHT22;27073;51.128;4.220;2023-02-01T13:01:09;10.20;45.60
41324;DHT22;27073;51.128;4.220;2023-02-01T13:03:50;10.20;46.30
41324;DHT22;27073;51.128;4.220;2023-02-01T13:06:32;10.20;46.20
41324;DHT22;27073;51.128;4.220;2023-02-01T13:11:38;10.20;48.50
41324;DHT22;27073;51.128;4.220;2023-02-01T13:16:47;10.30;44.10
41324;DHT22;27073;51.128;4.220;2023-02-01T13:19:22;10.30;47.40
41324;DHT22;27073;51.128;4.220;2023-02-01T13:21:55;10.20;48.70
41324;DHT22;27073;51.128;4.220;2023-02-01T13:24:27;10.30;47.60
41324;DHT22;27073;51.128;4.220;2023-02-01T13:26:55;10.30;48.30
41324;DHT22;27073;51.128;4.220;2023-02-01T13:29:22;10.30;51.30
41324;DHT22;27073;51.128;4.220;2023-02-01T13:35:03;10.30;52.00
41324;DHT22;27073;51.128;4.220;2023-02-01T13:43:27;10.10;55.70
41324;DHT22;27073;51.128;4.220;2023-02-01T13:45:57;10.20;57.40
41324;DHT22;27073;51.128;4.220;2023-02-01T13:48:41;10.10;57.00
41324;DHT22;27073;51.128;4.220;2023-02-01T13:51:12;10.10;59.10
41324;DHT22;27073;51.128;4.220;2023-02-01T13:53:45;10.10;59.50
41324;DHT22;27073;51.128;4.220;2023-02-01T13:56:23;10.10;58.30
41324;DHT22;27073;51.128;4.220;2023-02-01T13:58:50;10.10;60.30
41324;DHT22;27073;51.128;4.220;2023-02-01T14:03:56;10.00;63.00
41324;DHT22;27073;51.128;4.220;2023-02-01T14:11:44;10.00;61.30
41324;DHT22;27073;51.128;4.220;2023-02-01T14:19:28;9.80;65.70
41324;DHT22;27073;51.128;4.220;2023-02-01T14:21:59;9.90;65.60
41324;DHT22;27073;51.128;4.220;2023-02-01T14:24:33;9.80;68.10
41324;DHT22;27073;51.128;4.220;2023-02-01T14:29:41;9.80;69.10
41324;DHT22;27073;51.128;4.220;2023-02-01T14:32:17;9.80;69.90
41324;DHT22;27073;51.128;4.220;2023-02-01T14:39:58;9.70;66.30
41324;DHT22;27073;51.128;4.220;2023-02-01T14:47:45;9.60;73.80
41324;DHT22;27073;51.128;4.220;2023-02-01T14:55:45;9.40;77.70
41324;DHT22;27073;51.128;4.220;2023-02-01T15:00:57;9.30;80.60
41324;DHT22;27073;51.128;4.220;2023-02-01T15:06:30;9.30;82.10
41324;DHT22;27073;51.128;4.220;2023-02-01T15:09:31;9.30;81.70
41324;DHT22;27073;51.128;4.220;2023-02-01T15:12:04;9.20;83.70
41324;DHT22;27073;51.128;4.220;2023-02-01T15:14:34;9.20;84.00
41324;DHT22;27073;51.128;4.220;2023-02-01T15:17:00;9.20;84.00
41324;DHT22;27073;51.128;4.220;2023-02-01T15:19:28;9.20;84.90
41324;DHT22;27073;51.128;4.220;2023-02-01T15:21:56;9.10;87.00
41324;DHT22;27073;51.128;4.220;2023-02-01T15:24:30;9.20;87.40
41324;DHT22;27073;51.128;4.220;2023-02-01T15:27:03;9.20;87.40
41324;DHT22;27073;51.128;4.220;2023-02-01T15:29:30;9.20;86.70
41324;DHT22;27073;51.128;4.220;2023-02-01T15:31:58;9.20;87.50
41324;DHT22;27073;51.128;4.220;2023-02-01T15:34:44;9.20;87.80
41324;DHT22;27073;51.128;4.220;2023-02-01T15:37:15;9.20;88.30
41324;DHT22;27073;51.128;4.220;2023-02-01T15:42:25;9.10;89.60
41324;DHT22;27073;51.128;4.220;2023-02-01T15:44:52;9.10;90.50
41324;DHT22;27073;51.128;4.220;2023-02-01T15:47:27;9.10;90.30
41324;DHT22;27073;51.128;4.220;2023-02-01T15:49:56;9.10;90.40
41324;DHT22;27073;51.128;4.220;2023-02-01T15:52:37;9.10;91.00
41324;DHT22;27073;51.128;4.220;2023-02-01T15:55:07;9.10;90.70
41324;DHT22;27073;51.128;4.220;2023-02-01T15:57:38;9.00;91.30
41324;DHT22;27073;51.128;4.220;2023-02-01T16:00:07;9.00;91.70
41324;DHT22;27073;51.128;4.220;2023-02-01T16:02:53;9.00;92.10
41324;DHT22;27073;51.128;4.220;2023-02-01T16:05:40;9.10;91.50
41324;DHT22;27073;51.128;4.220;2023-02-01T16:08:19;9.10;91.30
41324;DHT22;27073;51.128;4.220;2023-02-01T16:10:48;9.00;91.90
41324;DHT22;27073;51.128;4.220;2023-02-01T16:13:15;9.00;92.00
41324;DHT22;27073;51.128;4.220;2023-02-01T16:15:42;9.00;92.10
41324;DHT22;27073;51.128;4.220;2023-02-01T16:18:08;9.00;91.90
41324;DHT22;27073;51.128;4.220;2023-02-01T16:20:36;9.10;91.60
41324;DHT22;27073;51.128;4.220;2023-02-01T16:23:03;8.90;92.00
41324;DHT22;27073;51.128;4.220;2023-02-01T16:25:28;8.90;92.40
41324;DHT22;27073;51.128;4.220;2023-02-01T16:27:54;8.90;92.20
41324;DHT22;27073;51.128;4.220;2023-02-01T16:30:20;8.90;92.50
41324;DHT22;27073;51.128;4.220;2023-02-01T16:32:57;8.90;92.60
41324;DHT22;27073;51.128;4.220;2023-02-01T16:35:27;8.90;92.70
41324;DHT22;27073;51.128;4.220;2023-02-01T16:37:53;8.90;92.60
41324;DHT22;27073;51.128;4.220;2023-02-01T16:40:20;8.90;92.60
41324;DHT22;27073;51.128;4.220;2023-02-01T16:42:49;8.90;92.70
41324;DHT22;27073;51.128;4.220;2023-02-01T16:45:15;8.90;92.70
41324;DHT22;27073;51.128;4.220;2023-02-01T16:47:47;8.90;92.50
41324;DHT22;27073;51.128;4.220;2023-02-01T16:50:18;9.00;92.40
41324;DHT22;27073;51.128;4.220;2023-02-01T16:52:46;8.90;92.50
41324;DHT22;27073;51.128;4.220;2023-02-01T16:55:17;9.00;92.40
41324;DHT22;27073;51.128;4.220;2023-02-01T16:57:44;9.00;91.90
41324;DHT22;27073;51.128;4.220;2023-02-01T17:00:11;9.10;91.90
41324;DHT22;27073;51.128;4.220;2023-02-01T17:02:37;8.90;92.60
41324;DHT22;27073;51.128;4.220;2023-02-01T17:05:04;8.90;92.90
41324;DHT22;27073;51.128;4.220;2023-02-01T17:07:31;9.00;93.20
41324;DHT22;27073;51.128;4.220;2023-02-01T17:09:58;9.00;92.20
41324;DHT22;27073;51.128;4.220;2023-02-01T17:12:27;9.00;92.30
41324;DHT22;27073;51.128;4.220;2023-02-01T17:14:54;9.00;92.70
41324;DHT22;27073;51.128;4.220;2023-02-01T17:17:21;8.90;93.30
41324;DHT22;27073;51.128;4.220;2023-02-01T17:19:51;9.00;93.60
41324;DHT22;27073;51.128;4.220;2023-02-01T17:22:22;8.90;94.40
41324;DHT22;27073;51.128;4.220;2023-02-01T17:24:49;8.90;95.00
41324;DHT22;27073;51.128;4.220;2023-02-01T17:27:18;8.80;95.40
41324;DHT22;27073;51.128;4.220;2023-02-01T17:29:44;8.80;95.80
41324;DHT22;27073;51.128;4.220;2023-02-01T17:32:20;8.80;96.40
41324;DHT22;27073;51.128;4.220;2023-02-01T17:34:47;8.70;96.90
41324;DHT22;27073;51.128;4.220;2023-02-01T17:37:24;8.80;96.80
41324;DHT22;27073;51.128;4.220;2023-02-01T17:39:50;8.80;96.90
41324;DHT22;27073;51.128;4.220;2023-02-01T17:42:23;8.80;97.00
41324;DHT22;27073;51.128;4.220;2023-02-01T17:44:51;8.80;97.80
41324;DHT22;27073;51.128;4.220;2023-02-01T17:47:18;8.80;97.90
41324;DHT22;27073;51.128;4.220;2023-02-01T17:49:44;8.80;97.70
41324;DHT22;27073;51.128;4.220;2023-02-01T17:52:15;8.80;98.30
41324;DHT22;27073;51.128;4.220;2023-02-01T17:54:42;8.80;98.20
41324;DHT22;27073;51.128;4.220;2023-02-01T17:57:11;8.90;98.30
41324;DHT22;27073;51.128;4.220;2023-02-01T17:59:39;8.90;98.10
41324;DHT22;27073;51.128;4.220;2023-02-01T18:02:26;8.80;98.50
41324;DHT22;27073;51.128;4.220;2023-02-01T18:04:52;8.80;98.50
41324;DHT22;27073;51.128;4.220;2023-02-01T18:07:18;8.80;98.40
41324;DHT22;27073;51.128;4.220;2023-02-01T18:09:44;8.80;98.50
41324;DHT22;27073;51.128;4.220;2023-02-01T18:12:21;8.80;99.20
41324;DHT22;27073;51.128;4.220;2023-02-01T18:14:47;8.70;99.30
41324;DHT22;27073;51.128;4.220;2023-02-01T18:17:13;8.70;99.10
41324;DHT22;27073;51.128;4.220;2023-02-01T18:19:39;8.80;99.10
41324;DHT22;27073;51.128;4.220;2023-02-01T18:22:05;8.70;99.50
41324;DHT22;27073;51.128;4.220;2023-02-01T18:24:33;8.70;99.80
41324;DHT22;27073;51.128;4.220;2023-02-01T18:26:59;8.80;99.80
41324;DHT22;27073;51.128;4.220;2023-02-01T18:29:25;8.70;99.30
41324;DHT22;27073;51.128;4.220;2023-02-01T18:31:51;8.80;99.20